sensor_id;sensor_type;location;lat;lon;timestamp;pressure;altitude;pressure_sealevel;temperature;humidity
76137;BME280;68622;53.128;17.966;2023-09-07T00:00:15;102281.17;;;17.85;69.83
76137;BME280;68622;53.128;17.966;2023-09-07T00:03:02;102285.27;;;17.85;69.94
76137;BME280;68622;53.128;17.966;2023-09-07T00:05:31;102286.41;;;17.82;69.97
76137;BME280;68622;53.128;17.966;2023-09-07T00:07:57;102290.05;;;17.80;69.95
76137;BME280;68622;53.128;17.966;2023-09-07T00:10:26;102285.92;;;17.78;70.67
76137;BME280;68622;53.128;17.966;2023-09-07T00:12:53;102285.73;;;17.74;70.61
76137;BME280;68622;53.128;17.966;2023-09-07T00:15:19;102284.80;;;17.71;70.98
76137;BME280;68622;53.128;17.966;2023-09-07T00:17:47;102284.75;;;17.68;70.85
76137;BME280;68622;53.128;17.966;2023-09-07T00:20:14;102282.67;;;17.62;70.79
76137;BME280;68622;53.128;17.966;2023-09-07T00:22:40;102287.00;;;17.57;71.19
76137;BME280;68622;53.128;17.966;2023-09-07T00:25:07;102284.67;;;17.51;71.10
76137;BME280;68622;53.128;17.966;2023-09-07T00:27:35;102288.50;;;17.48;70.99
76137;BME280;68622;53.128;17.966;2023-09-07T00:30:03;102286.66;;;17.47;71.72
76137;BME280;68622;53.128;17.966;2023-09-07T00:32:36;102288.94;;;17.45;71.25
76137;BME280;68622;53.128;17.966;2023-09-07T00:35:03;102289.04;;;17.42;71.25
76137;BME280;68622;53.128;17.966;2023-09-07T00:37:31;102289.53;;;17.39;71.99
76137;BME280;68622;53.128;17.966;2023-09-07T00:39:58;102290.83;;;17.36;71.96
76137;BME280;68622;53.128;17.966;2023-09-07T00:42:24;102285.93;;;17.32;71.79
76137;BME280;68622;53.128;17.966;2023-09-07T00:44:51;102287.20;;;17.30;72.25
76137;BME280;68622;53.128;17.966;2023-09-07T00:47:18;102287.88;;;17.28;72.04
76137;BME280;68622;53.128;17.966;2023-09-07T00:49:45;102283.89;;;17.27;71.81
76137;BME280;68622;53.128;17.966;2023-09-07T00:52:12;102288.75;;;17.26;72.64
76137;BME280;68622;53.128;17.966;2023-09-07T00:54:40;102284.75;;;17.24;72.26
76137;BME280;68622;53.128;17.966;2023-09-07T00:57:08;102284.27;;;17.22;72.12
76137;BME280;68622;53.128;17.966;2023-09-07T00:59:36;102285.60;;;17.18;72.17
76137;BME280;68622;53.128;17.966;2023-09-07T01:02:02;102288.52;;;17.15;72.27
76137;BME280;68622;53.128;17.966;2023-09-07T01:04:32;102286.79;;;17.13;72.53
76137;BME280;68622;53.128;17.966;2023-09-07T01:07:25;102286.52;;;17.13;72.37
76137;BME280;68622;53.128;17.966;2023-09-07T01:09:54;102286.42;;;17.12;72.51
76137;BME280;68622;53.128;17.966;2023-09-07T01:12:22;102284.67;;;17.09;72.51
76137;BME280;68622;53.128;17.966;2023-09-07T01:14:49;102283.25;;;17.06;72.90
76137;BME280;68622;53.128;17.966;2023-09-07T01:17:15;102288.91;;;17.01;73.11
76137;BME280;68622;53.128;17.966;2023-09-07T01:19:43;102290.39;;;16.99;73.31
76137;BME280;68622;53.128;17.966;2023-09-07T01:22:11;102289.84;;;16.95;73.29
76137;BME280;68622;53.128;17.966;2023-09-07T01:24:39;102289.98;;;16.93;73.00
76137;BME280;68622;53.128;17.966;2023-09-07T01:27:07;102287.58;;;16.93;73.17
76137;BME280;68622;53.128;17.966;2023-09-07T01:29:34;102285.51;;;16.91;73.36
76137;BME280;68622;53.128;17.966;2023-09-07T01:32:05;102283.99;;;16.90;73.15
76137;BME280;68622;53.128;17.966;2023-09-07T01:34:32;102285.80;;;16.90;73.27
76137;BME280;68622;53.128;17.966;2023-09-07T01:36:58;102284.82;;;16.89;73.32
76137;BME280;68622;53.128;17.966;2023-09-07T01:39:25;102287.94;;;16.91;73.63
76137;BME280;68622;53.128;17.966;2023-09-07T01:41:52;102291.03;;;16.90;73.68
76137;BME280;68622;53.128;17.966;2023-09-07T01:44:19;102292.61;;;16.90;73.29
76137;BME280;68622;53.128;17.966;2023-09-07T01:46:46;102293.30;;;16.90;73.20
76137;BME280;68622;53.128;17.966;2023-09-07T01:49:12;102292.05;;;16.90;73.50
76137;BME280;68622;53.128;17.966;2023-09-07T01:51:39;102296.70;;;16.89;73.38
76137;BME280;68622;53.128;17.966;2023-09-07T01:54:06;102291.02;;;16.88;73.44
76137;BME280;68622;53.128;17.966;2023-09-07T01:56:33;102289.98;;;16.90;73.36
76137;BME280;68622;53.128;17.966;2023-09-07T01:59:00;102286.20;;;16.93;73.28
76137;BME280;68622;53.128;17.966;2023-09-07T02:01:29;102282.59;;;16.94;73.35
76137;BME280;68622;53.128;17.966;2023-09-07T02:03:57;102286.10;;;16.98;73.41
76137;BME280;68622;53.128;17.966;2023-09-07T02:06:24;102285.53;;;17.00;73.30
76137;BME280;68622;53.128;17.966;2023-09-07T02:08:50;102289.30;;;17.01;73.72
76137;BME280;68622;53.128;17.966;2023-09-07T02:11:17;102282.23;;;17.02;73.80
76137;BME280;68622;53.128;17.966;2023-09-07T02:13:47;102286.56;;;17.02;73.65
76137;BME280;68622;53.128;17.966;2023-09-07T02:16:13;102285.63;;;17.05;73.68
76137;BME280;68622;53.128;17.966;2023-09-07T02:18:42;102281.29;;;17.06;73.71
76137;BME280;68622;53.128;17.966;2023-09-07T02:21:13;102284.51;;;17.09;73.63
76137;BME280;68622;53.128;17.966;2023-09-07T02:23:40;102286.50;;;17.11;73.65
76137;BME280;68622;53.128;17.966;2023-09-07T02:26:07;102285.63;;;17.13;73.57
76137;BME280;68622;53.128;17.966;2023-09-07T02:28:34;102282.99;;;17.14;73.59
76137;BME280;68622;53.128;17.966;2023-09-07T02:31:04;102283.92;;;17.16;73.81
76137;BME280;68622;53.128;17.966;2023-09-07T02:33:32;102285.08;;;17.15;74.12
76137;BME280;68622;53.128;17.966;2023-09-07T02:35:59;102282.40;;;17.14;74.01
76137;BME280;68622;53.128;17.966;2023-09-07T02:38:26;102284.80;;;17.14;73.89
76137;BME280;68622;53.128;17.966;2023-09-07T02:40:55;102289.98;;;17.15;74.12
76137;BME280;68622;53.128;17.966;2023-09-07T02:43:22;102292.70;;;17.16;74.31
76137;BME280;68622;53.128;17.966;2023-09-07T02:45:49;102289.95;;;17.17;74.21
76137;BME280;68622;53.128;17.966;2023-09-07T02:48:17;102293.52;;;17.18;74.50
76137;BME280;68622;53.128;17.966;2023-09-07T02:50:44;102292.59;;;17.19;74.40
76137;BME280;68622;53.128;17.966;2023-09-07T02:53:15;102292.51;;;17.20;74.31
76137;BME280;68622;53.128;17.966;2023-09-07T02:55:42;102291.47;;;17.22;74.16
76137;BME280;68622;53.128;17.966;2023-09-07T02:58:09;102291.81;;;17.24;74.17
76137;BME280;68622;53.128;17.966;2023-09-07T03:00:41;102291.34;;;17.27;74.06
76137;BME280;68622;53.128;17.966;2023-09-07T03:03:07;102292.27;;;17.34;73.94
76137;BME280;68622;53.128;17.966;2023-09-07T03:05:34;102290.08;;;17.40;73.89
76137;BME280;68622;53.128;17.966;2023-09-07T03:08:01;102288.52;;;17.42;73.89
76137;BME280;68622;53.128;17.966;2023-09-07T03:10:27;102288.10;;;17.42;74.38
76137;BME280;68622;53.128;17.966;2023-09-07T03:12:54;102297.00;;;17.37;74.32
76137;BME280;68622;53.128;17.966;2023-09-07T03:15:21;102294.08;;;17.31;74.49
76137;BME280;68622;53.128;17.966;2023-09-07T03:17:48;102292.54;;;17.29;74.87
76137;BME280;68622;53.128;17.966;2023-09-07T03:20:15;102295.27;;;17.28;74.59
76137;BME280;68622;53.128;17.966;2023-09-07T03:22:46;102291.08;;;17.30;74.43
76137;BME280;68622;53.128;17.966;2023-09-07T03:25:13;102292.52;;;17.31;74.53
76137;BME280;68622;53.128;17.966;2023-09-07T03:27:41;102291.16;;;17.32;74.77
76137;BME280;68622;53.128;17.966;2023-09-07T03:30:09;102291.73;;;17.35;74.47
76137;BME280;68622;53.128;17.966;2023-09-07T03:32:36;102295.79;;;17.37;74.49
76137;BME280;68622;53.128;17.966;2023-09-07T03:35:04;102298.53;;;17.36;74.92
76137;BME280;68622;53.128;17.966;2023-09-07T03:37:36;102301.33;;;17.32;74.94
76137;BME280;68622;53.128;17.966;2023-09-07T03:40:04;102301.30;;;17.31;74.75
76137;BME280;68622;53.128;17.966;2023-09-07T03:42:32;102301.66;;;17.34;74.77
76137;BME280;68622;53.128;17.966;2023-09-07T03:44:59;102304.27;;;17.38;74.67
76137;BME280;68622;53.128;17.966;2023-09-07T03:47:26;102300.90;;;17.39;74.49
76137;BME280;68622;53.128;17.966;2023-09-07T03:49:57;102303.85;;;17.41;74.30
76137;BME280;68622;53.128;17.966;2023-09-07T03:52:24;102302.70;;;17.44;74.56
76137;BME280;68622;53.128;17.966;2023-09-07T03:54:54;102308.60;;;17.45;74.32
76137;BME280;68622;53.128;17.966;2023-09-07T03:57:23;102305.83;;;17.44;74.51
76137;BME280;68622;53.128;17.966;2023-09-07T03:59:50;102303.58;;;17.44;74.24
76137;BME280;68622;53.128;17.966;2023-09-07T04:02:17;102304.75;;;17.44;74.03
76137;BME280;68622;53.128;17.966;2023-09-07T04:04:49;102307.23;;;17.44;74.06
76137;BME280;68622;53.128;17.966;2023-09-07T04:07:16;102307.69;;;17.43;74.06
76137;BME280;68622;53.128;17.966;2023-09-07T04:09:44;102310.67;;;17.41;74.11
76137;BME280;68622;53.128;17.966;2023-09-07T04:12:11;102310.73;;;17.39;74.03
76137;BME280;68622;53.128;17.966;2023-09-07T04:14:38;102311.89;;;17.38;73.93
76137;BME280;68622;53.128;17.966;2023-09-07T04:17:05;102312.60;;;17.38;73.95
76137;BME280;68622;53.128;17.966;2023-09-07T04:19:32;102312.75;;;17.38;73.75
76137;BME280;68622;53.128;17.966;2023-09-07T04:22:00;102314.16;;;17.38;73.92
76137;BME280;68622;53.128;17.966;2023-09-07T04:24:27;102317.51;;;17.37;73.87
76137;BME280;68622;53.128;17.966;2023-09-07T04:26:58;102315.37;;;17.38;73.82
76137;BME280;68622;53.128;17.966;2023-09-07T04:29:26;102318.23;;;17.39;73.91
76137;BME280;68622;53.128;17.966;2023-09-07T04:31:53;102319.52;;;17.40;74.03
76137;BME280;68622;53.128;17.966;2023-09-07T04:34:21;102321.31;;;17.42;74.04
76137;BME280;68622;53.128;17.966;2023-09-07T04:36:51;102318.67;;;17.42;73.94
76137;BME280;68622;53.128;17.966;2023-09-07T04:39:19;102320.21;;;17.42;73.92
76137;BME280;68622;53.128;17.966;2023-09-07T04:41:45;102322.36;;;17.44;73.91
76137;BME280;68622;53.128;17.966;2023-09-07T04:44:12;102321.20;;;17.43;74.19
76137;BME280;68622;53.128;17.966;2023-09-07T04:46:39;102330.45;;;17.43;74.08
76137;BME280;68622;53.128;17.966;2023-09-07T04:49:07;102330.69;;;17.45;74.07
76137;BME280;68622;53.128;17.966;2023-09-07T04:51:34;102330.63;;;17.46;73.89
76137;BME280;68622;53.128;17.966;2023-09-07T04:54:01;102333.05;;;17.48;74.06
76137;BME280;68622;53.128;17.966;2023-09-07T04:56:28;102336.95;;;17.52;73.93
76137;BME280;68622;53.128;17.966;2023-09-07T04:58:56;102334.73;;;17.55;73.94
76137;BME280;68622;53.128;17.966;2023-09-07T05:01:23;102340.44;;;17.57;74.19
76137;BME280;68622;53.128;17.966;2023-09-07T05:03:52;102340.95;;;17.61;74.00
76137;BME280;68622;53.128;17.966;2023-09-07T05:06:19;102343.09;;;17.67;74.09
76137;BME280;68622;53.128;17.966;2023-09-07T05:08:46;102342.20;;;17.71;74.14
76137;BME280;68622;53.128;17.966;2023-09-07T05:11:13;102340.59;;;17.76;73.92
76137;BME280;68622;53.128;17.966;2023-09-07T05:13:39;102339.84;;;17.81;73.77
76137;BME280;68622;53.128;17.966;2023-09-07T05:16:06;102338.69;;;17.86;73.90
76137;BME280;68622;53.128;17.966;2023-09-07T05:18:34;102337.07;;;17.92;73.74
76137;BME280;68622;53.128;17.966;2023-09-07T05:21:01;102336.26;;;17.95;73.79
76137;BME280;68622;53.128;17.966;2023-09-07T05:23:28;102338.48;;;18.01;73.61
76137;BME280;68622;53.128;17.966;2023-09-07T05:25:55;102342.40;;;18.06;73.36
76137;BME280;68622;53.128;17.966;2023-09-07T05:28:23;102341.96;;;18.10;73.31
76137;BME280;68622;53.128;17.966;2023-09-07T05:30:51;102345.16;;;18.14;73.16
76137;BME280;68622;53.128;17.966;2023-09-07T05:33:19;102338.69;;;18.17;73.03
76137;BME280;68622;53.128;17.966;2023-09-07T05:35:46;102337.82;;;18.23;72.85
76137;BME280;68622;53.128;17.966;2023-09-07T05:38:12;102337.70;;;18.28;73.14
76137;BME280;68622;53.128;17.966;2023-09-07T05:40:41;102341.25;;;18.29;73.06
76137;BME280;68622;53.128;17.966;2023-09-07T05:43:08;102341.34;;;18.34;72.60
76137;BME280;68622;53.128;17.966;2023-09-07T05:45:40;102341.77;;;18.37;72.57
76137;BME280;68622;53.128;17.966;2023-09-07T05:48:07;102344.25;;;18.40;72.65
76137;BME280;68622;53.128;17.966;2023-09-07T05:50:36;102344.65;;;18.43;72.82
76137;BME280;68622;53.128;17.966;2023-09-07T05:53:04;102347.88;;;18.48;72.51
76137;BME280;68622;53.128;17.966;2023-09-07T05:55:32;102354.09;;;18.51;72.44
76137;BME280;68622;53.128;17.966;2023-09-07T05:57:59;102353.92;;;18.54;72.39
76137;BME280;68622;53.128;17.966;2023-09-07T06:00:27;102354.91;;;18.61;72.28
76137;BME280;68622;53.128;17.966;2023-09-07T06:02:53;102357.00;;;18.69;72.11
76137;BME280;68622;53.128;17.966;2023-09-07T06:05:20;102357.73;;;18.66;72.21
76137;BME280;68622;53.128;17.966;2023-09-07T06:07:47;102360.92;;;18.73;72.18
76137;BME280;68622;53.128;17.966;2023-09-07T06:10:15;102361.17;;;18.76;72.20
76137;BME280;68622;53.128;17.966;2023-09-07T06:12:41;102364.88;;;18.81;71.90
76137;BME280;68622;53.128;17.966;2023-09-07T06:15:08;102366.70;;;18.86;71.89
76137;BME280;68622;53.128;17.966;2023-09-07T06:17:36;102368.70;;;18.92;71.81
76137;BME280;68622;53.128;17.966;2023-09-07T06:20:03;102367.73;;;18.97;71.57
76137;BME280;68622;53.128;17.966;2023-09-07T06:22:31;102370.81;;;19.05;71.59
76137;BME280;68622;53.128;17.966;2023-09-07T06:24:58;102371.27;;;19.11;71.17
76137;BME280;68622;53.128;17.966;2023-09-07T06:27:24;102374.70;;;19.17;71.10
76137;BME280;68622;53.128;17.966;2023-09-07T06:29:51;102378.87;;;19.23;70.88
76137;BME280;68622;53.128;17.966;2023-09-07T06:32:19;102377.00;;;19.31;70.60
76137;BME280;68622;53.128;17.966;2023-09-07T06:34:46;102375.92;;;19.37;70.38
76137;BME280;68622;53.128;17.966;2023-09-07T06:37:12;102381.75;;;19.48;70.18
76137;BME280;68622;53.128;17.966;2023-09-07T06:39:40;102382.73;;;19.52;70.06
76137;BME280;68622;53.128;17.966;2023-09-07T06:42:10;102380.30;;;19.55;69.84
76137;BME280;68622;53.128;17.966;2023-09-07T06:44:46;102383.47;;;19.60;69.60
76137;BME280;68622;53.128;17.966;2023-09-07T06:47:13;102389.42;;;19.66;69.57
76137;BME280;68622;53.128;17.966;2023-09-07T06:49:40;102389.34;;;19.72;69.24
76137;BME280;68622;53.128;17.966;2023-09-07T06:52:07;102393.94;;;19.82;69.35
76137;BME280;68622;53.128;17.966;2023-09-07T06:54:36;102392.90;;;19.94;69.14
76137;BME280;68622;53.128;17.966;2023-09-07T06:57:06;102397.63;;;20.06;68.99
76137;BME280;68622;53.128;17.966;2023-09-07T06:59:34;102396.96;;;20.18;68.73
76137;BME280;68622;53.128;17.966;2023-09-07T07:02:01;102397.77;;;20.29;68.09
76137;BME280;68622;53.128;17.966;2023-09-07T07:04:28;102401.57;;;20.38;68.00
76137;BME280;68622;53.128;17.966;2023-09-07T07:06:55;102398.56;;;20.49;67.91
76137;BME280;68622;53.128;17.966;2023-09-07T07:09:22;102400.55;;;20.57;67.29
76137;BME280;68622;53.128;17.966;2023-09-07T07:11:49;102393.80;;;20.62;67.05
76137;BME280;68622;53.128;17.966;2023-09-07T07:14:16;102396.46;;;20.69;67.09
76137;BME280;68622;53.128;17.966;2023-09-07T07:16:44;102393.48;;;20.77;66.96
76137;BME280;68622;53.128;17.966;2023-09-07T07:19:11;102396.21;;;20.84;66.95
76137;BME280;68622;53.128;17.966;2023-09-07T07:21:38;102397.73;;;20.92;66.40
76137;BME280;68622;53.128;17.966;2023-09-07T07:24:06;102400.59;;;21.01;65.97
76137;BME280;68622;53.128;17.966;2023-09-07T07:26:34;102402.02;;;21.16;66.12
76137;BME280;68622;53.128;17.966;2023-09-07T07:29:02;102401.42;;;21.32;65.39
76137;BME280;68622;53.128;17.966;2023-09-07T07:31:29;102407.17;;;21.47;65.07
76137;BME280;68622;53.128;17.966;2023-09-07T07:33:56;102410.67;;;21.65;65.24
76137;BME280;68622;53.128;17.966;2023-09-07T07:36:23;102408.42;;;21.85;64.83
76137;BME280;68622;53.128;17.966;2023-09-07T07:38:49;102413.26;;;22.00;63.85
76137;BME280;68622;53.128;17.966;2023-09-07T07:41:16;102414.63;;;22.05;63.44
76137;BME280;68622;53.128;17.966;2023-09-07T07:43:43;102415.61;;;22.09;63.27
76137;BME280;68622;53.128;17.966;2023-09-07T07:46:10;102412.80;;;22.09;63.46
76137;BME280;68622;53.128;17.966;2023-09-07T07:48:38;102420.77;;;22.15;62.86
76137;BME280;68622;53.128;17.966;2023-09-07T07:51:05;102418.38;;;22.17;62.56
76137;BME280;68622;53.128;17.966;2023-09-07T07:53:33;102422.10;;;22.25;63.13
76137;BME280;68622;53.128;17.966;2023-09-07T07:56:00;102423.17;;;22.34;62.97
76137;BME280;68622;53.128;17.966;2023-09-07T07:58:27;102418.86;;;22.51;62.47
76137;BME280;68622;53.128;17.966;2023-09-07T08:00:54;102415.72;;;22.58;61.84
76137;BME280;68622;53.128;17.966;2023-09-07T08:03:26;102415.09;;;22.64;62.06
76137;BME280;68622;53.128;17.966;2023-09-07T08:05:53;102415.80;;;22.68;62.33
76137;BME280;68622;53.128;17.966;2023-09-07T08:08:19;102413.90;;;22.75;62.11
76137;BME280;68622;53.128;17.966;2023-09-07T08:10:46;102413.16;;;22.78;61.82
76137;BME280;68622;53.128;17.966;2023-09-07T08:13:13;102415.98;;;22.75;61.49
76137;BME280;68622;53.128;17.966;2023-09-07T08:15:40;102412.66;;;22.71;61.73
76137;BME280;68622;53.128;17.966;2023-09-07T08:18:07;102413.90;;;22.69;62.19
76137;BME280;68622;53.128;17.966;2023-09-07T08:20:35;102415.52;;;22.68;61.49
76137;BME280;68622;53.128;17.966;2023-09-07T08:23:03;102418.65;;;22.64;60.64
76137;BME280;68622;53.128;17.966;2023-09-07T08:25:34;102420.44;;;22.55;60.48
76137;BME280;68622;53.128;17.966;2023-09-07T08:28:01;102417.98;;;22.49;60.90
76137;BME280;68622;53.128;17.966;2023-09-07T08:30:32;102424.89;;;22.49;61.16
76137;BME280;68622;53.128;17.966;2023-09-07T08:33:00;102419.27;;;22.47;60.91
76137;BME280;68622;53.128;17.966;2023-09-07T08:35:29;102420.80;;;22.49;61.39
76137;BME280;68622;53.128;17.966;2023-09-07T08:37:56;102419.08;;;22.53;61.16
76137;BME280;68622;53.128;17.966;2023-09-07T08:40:26;102420.44;;;22.54;61.05
76137;BME280;68622;53.128;17.966;2023-09-07T08:42:54;102416.23;;;22.60;61.06
76137;BME280;68622;53.128;17.966;2023-09-07T08:45:25;102418.23;;;22.67;60.95
76137;BME280;68622;53.128;17.966;2023-09-07T08:47:52;102414.11;;;22.72;60.54
76137;BME280;68622;53.128;17.966;2023-09-07T08:50:21;102414.98;;;22.75;60.39
76137;BME280;68622;53.128;17.966;2023-09-07T08:52:52;102414.70;;;22.74;60.30
76137;BME280;68622;53.128;17.966;2023-09-07T08:55:20;102416.11;;;22.76;60.24
76137;BME280;68622;53.128;17.966;2023-09-07T08:57:47;102408.32;;;22.79;60.18
76137;BME280;68622;53.128;17.966;2023-09-07T09:00:14;102409.94;;;22.83;60.13
76137;BME280;68622;53.128;17.966;2023-09-07T09:02:46;102411.98;;;22.87;59.88
76137;BME280;68622;53.128;17.966;2023-09-07T09:05:14;102409.36;;;22.88;60.15
76137;BME280;68622;53.128;17.966;2023-09-07T09:07:41;102403.98;;;22.92;60.00
76137;BME280;68622;53.128;17.966;2023-09-07T09:10:08;102404.61;;;23.00;59.93
76137;BME280;68622;53.128;17.966;2023-09-07T09:12:35;102400.19;;;23.06;60.03
76137;BME280;68622;53.128;17.966;2023-09-07T09:15:02;102397.94;;;23.15;59.76
76137;BME280;68622;53.128;17.966;2023-09-07T09:17:29;102398.85;;;23.22;59.48
76137;BME280;68622;53.128;17.966;2023-09-07T09:19:56;102394.11;;;23.28;58.74
76137;BME280;68622;53.128;17.966;2023-09-07T09:22:23;102392.31;;;23.26;59.51
76137;BME280;68622;53.128;17.966;2023-09-07T09:24:50;102386.91;;;23.29;58.85
76137;BME280;68622;53.128;17.966;2023-09-07T09:27:17;102387.91;;;23.34;58.99
76137;BME280;68622;53.128;17.966;2023-09-07T09:29:44;102385.70;;;23.39;58.93
76137;BME280;68622;53.128;17.966;2023-09-07T09:32:13;102381.60;;;23.45;58.96
76137;BME280;68622;53.128;17.966;2023-09-07T09:34:43;102381.13;;;23.54;59.40
76137;BME280;68622;53.128;17.966;2023-09-07T09:37:13;102377.34;;;23.64;58.88
76137;BME280;68622;53.128;17.966;2023-09-07T09:39:43;102381.18;;;23.73;58.65
76137;BME280;68622;53.128;17.966;2023-09-07T09:42:12;102377.25;;;23.81;58.21
76137;BME280;68622;53.128;17.966;2023-09-07T09:44:40;102379.47;;;23.90;58.08
76137;BME280;68622;53.128;17.966;2023-09-07T09:47:08;102378.70;;;23.98;57.48
76137;BME280;68622;53.128;17.966;2023-09-07T09:49:34;102383.80;;;24.06;57.66
76137;BME280;68622;53.128;17.966;2023-09-07T09:52:02;102379.52;;;24.11;57.33
76137;BME280;68622;53.128;17.966;2023-09-07T09:54:30;102377.27;;;24.16;57.14
76137;BME280;68622;53.128;17.966;2023-09-07T09:56:58;102373.02;;;24.24;57.23
76137;BME280;68622;53.128;17.966;2023-09-07T09:59:25;102371.94;;;24.33;57.36
76137;BME280;68622;53.128;17.966;2023-09-07T10:01:53;102371.80;;;24.40;56.69
76137;BME280;68622;53.128;17.966;2023-09-07T10:04:21;102367.52;;;24.45;55.98
76137;BME280;68622;53.128;17.966;2023-09-07T10:06:58;102367.22;;;24.51;55.70
76137;BME280;68622;53.128;17.966;2023-09-07T10:09:34;102361.98;;;24.59;56.42
76137;BME280;68622;53.128;17.966;2023-09-07T10:12:03;102362.24;;;24.67;55.99
76137;BME280;68622;53.128;17.966;2023-09-07T10:14:40;102362.11;;;24.74;55.96
76137;BME280;68622;53.128;17.966;2023-09-07T10:17:08;102365.95;;;24.82;55.98
76137;BME280;68622;53.128;17.966;2023-09-07T10:19:36;102365.55;;;24.80;55.86
76137;BME280;68622;53.128;17.966;2023-09-07T10:22:04;102364.59;;;24.85;55.37
76137;BME280;68622;53.128;17.966;2023-09-07T10:24:32;102366.17;;;24.98;54.52
76137;BME280;68622;53.128;17.966;2023-09-07T10:27:07;102362.58;;;25.07;53.59
76137;BME280;68622;53.128;17.966;2023-09-07T10:29:51;102361.20;;;25.15;54.55
76137;BME280;68622;53.128;17.966;2023-09-07T10:32:21;102357.98;;;25.24;54.11
76137;BME280;68622;53.128;17.966;2023-09-07T10:34:48;102356.41;;;25.20;53.40
76137;BME280;68622;53.128;17.966;2023-09-07T10:37:16;102353.59;;;25.25;53.97
76137;BME280;68622;53.128;17.966;2023-09-07T10:39:44;102354.80;;;25.41;53.96
76137;BME280;68622;53.128;17.966;2023-09-07T10:42:21;102353.67;;;25.57;52.87
76137;BME280;68622;53.128;17.966;2023-09-07T10:44:50;102348.61;;;25.67;52.45
76137;BME280;68622;53.128;17.966;2023-09-07T10:47:17;102347.34;;;25.74;51.90
76137;BME280;68622;53.128;17.966;2023-09-07T10:49:44;102352.20;;;25.83;52.61
76137;BME280;68622;53.128;17.966;2023-09-07T10:52:11;102352.23;;;25.89;51.01
76137;BME280;68622;53.128;17.966;2023-09-07T10:54:37;102352.66;;;25.96;51.55
76137;BME280;68622;53.128;17.966;2023-09-07T10:57:11;102350.60;;;26.04;51.47
76137;BME280;68622;53.128;17.966;2023-09-07T10:59:46;102344.48;;;26.10;51.05
76137;BME280;68622;53.128;17.966;2023-09-07T11:02:13;102344.04;;;26.14;50.47
76137;BME280;68622;53.128;17.966;2023-09-07T11:04:41;102345.55;;;26.17;49.63
76137;BME280;68622;53.128;17.966;2023-09-07T11:07:08;102343.30;;;26.18;50.76
76137;BME280;68622;53.128;17.966;2023-09-07T11:09:42;102335.98;;;26.21;50.28
76137;BME280;68622;53.128;17.966;2023-09-07T11:12:13;102334.30;;;26.26;50.24
76137;BME280;68622;53.128;17.966;2023-09-07T11:14:42;102336.54;;;26.30;50.47
76137;BME280;68622;53.128;17.966;2023-09-07T11:17:08;102337.68;;;26.34;50.06
76137;BME280;68622;53.128;17.966;2023-09-07T11:19:35;102336.20;;;26.37;49.68
76137;BME280;68622;53.128;17.966;2023-09-07T11:22:02;102334.86;;;26.39;49.48
76137;BME280;68622;53.128;17.966;2023-09-07T11:24:32;102330.23;;;26.40;49.29
76137;BME280;68622;53.128;17.966;2023-09-07T11:27:00;102325.20;;;26.43;49.10
76137;BME280;68622;53.128;17.966;2023-09-07T11:29:27;102323.51;;;26.47;48.49
76137;BME280;68622;53.128;17.966;2023-09-07T11:32:05;102321.58;;;26.48;47.64
76137;BME280;68622;53.128;17.966;2023-09-07T11:34:32;102317.28;;;26.51;47.31
76137;BME280;68622;53.128;17.966;2023-09-07T11:36:58;102317.03;;;26.54;48.32
76137;BME280;68622;53.128;17.966;2023-09-07T11:39:25;102310.85;;;26.58;47.64
76137;BME280;68622;53.128;17.966;2023-09-07T11:41:52;102310.89;;;26.64;47.61
76137;BME280;68622;53.128;17.966;2023-09-07T11:44:19;102310.87;;;26.72;48.22
76137;BME280;68622;53.128;17.966;2023-09-07T11:46:47;102310.19;;;26.76;47.73
76137;BME280;68622;53.128;17.966;2023-09-07T11:49:13;102312.52;;;26.80;47.30
76137;BME280;68622;53.128;17.966;2023-09-07T11:51:41;102310.40;;;26.82;47.79
76137;BME280;68622;53.128;17.966;2023-09-07T11:54:07;102309.48;;;26.84;46.68
76137;BME280;68622;53.128;17.966;2023-09-07T11:56:34;102308.58;;;26.91;48.02
76137;BME280;68622;53.128;17.966;2023-09-07T11:59:05;102305.21;;;26.96;47.23
76137;BME280;68622;53.128;17.966;2023-09-07T12:01:32;102306.66;;;27.01;47.82
76137;BME280;68622;53.128;17.966;2023-09-07T12:03:59;102305.30;;;27.07;47.19
76137;BME280;68622;53.128;17.966;2023-09-07T12:06:26;102306.34;;;27.11;46.40
76137;BME280;68622;53.128;17.966;2023-09-07T12:09:00;102305.31;;;27.16;45.95
76137;BME280;68622;53.128;17.966;2023-09-07T12:11:27;102304.27;;;27.20;45.55
76137;BME280;68622;53.128;17.966;2023-09-07T12:13:53;102304.06;;;27.26;43.58
76137;BME280;68622;53.128;17.966;2023-09-07T12:16:20;102302.05;;;27.34;44.27
76137;BME280;68622;53.128;17.966;2023-09-07T12:18:47;102301.13;;;27.44;43.42
76137;BME280;68622;53.128;17.966;2023-09-07T12:21:13;102301.62;;;27.54;43.05
76137;BME280;68622;53.128;17.966;2023-09-07T12:23:40;102296.58;;;27.66;43.19
76137;BME280;68622;53.128;17.966;2023-09-07T12:26:07;102296.11;;;27.79;43.00
76137;BME280;68622;53.128;17.966;2023-09-07T12:28:35;102292.36;;;27.89;43.37
76137;BME280;68622;53.128;17.966;2023-09-07T12:31:03;102291.29;;;27.93;42.51
76137;BME280;68622;53.128;17.966;2023-09-07T12:33:31;102287.38;;;28.01;43.03
76137;BME280;68622;53.128;17.966;2023-09-07T12:35:59;102283.86;;;28.04;42.03
76137;BME280;68622;53.128;17.966;2023-09-07T12:38:25;102281.83;;;28.08;41.40
76137;BME280;68622;53.128;17.966;2023-09-07T12:40:55;102277.48;;;28.15;41.24
76137;BME280;68622;53.128;17.966;2023-09-07T12:43:22;102272.98;;;28.19;41.15